createdAt,value
2018-06-12T00:04:03.197Z,5.68
2018-06-12T00:09:58.176Z,6.6
2018-06-12T00:15:53.220Z,4.44
2018-06-12T00:21:48.459Z,5.71
2018-06-12T00:27:43.214Z,7.38
2018-06-12T00:33:38.218Z,5.08
2018-06-12T00:39:33.242Z,4.5
2018-06-12T00:45:28.229Z,4.05
2018-06-12T00:51:23.212Z,5.62
2018-06-12T00:57:18.225Z,5.36
2018-06-12T01:03:13.231Z,6.25
2018-06-12T01:09:08.203Z,4.81
2018-06-12T01:15:03.200Z,4.61
2018-06-12T01:20:58.298Z,2.95
2018-06-12T01:27:23.555Z,7.41
2018-06-12T01:32:48.262Z,4.33
2018-06-12T01:38:43.278Z,5.28
2018-06-12T01:44:38.237Z,5.7
2018-06-12T01:50:33.247Z,4.87
2018-06-12T01:56:28.235Z,5.29
2018-06-12T02:02:23.279Z,6.75
2018-06-12T02:08:18.240Z,3.77
2018-06-12T02:14:13.204Z,6.37
2018-06-12T02:20:08.219Z,3.83
2018-06-12T02:26:03.243Z,5.86
2018-06-12T02:31:58.249Z,5.06
2018-06-12T02:37:53.243Z,4.1
2018-06-12T02:43:48.255Z,4.03
2018-06-12T02:49:43.234Z,5.4
2018-06-12T02:55:38.295Z,8.19
2018-06-12T03:01:33.257Z,4.27
2018-06-12T03:07:28.234Z,3.66
2018-06-12T03:13:23.322Z,4.89
2018-06-12T03:19:18.372Z,6.88
2018-06-12T03:25:13.241Z,3.44
2018-06-12T03:31:08.272Z,5.24
2018-06-12T03:37:03.426Z,5.46
2018-06-12T03:42:58.244Z,4.16
2018-06-12T03:48:53.234Z,8.75
2018-06-12T03:54:48.342Z,3.61
2018-06-12T04:00:43.280Z,3.71
2018-06-12T04:06:38.338Z,4.14
2018-06-12T04:12:33.291Z,3.27
2018-06-12T04:18:28.249Z,5.5
2018-06-12T04:24:23.276Z,4.32
2018-06-12T04:30:18.303Z,4.2
2018-06-12T04:36:13.272Z,4.61
2018-06-12T04:42:08.257Z,7.85
2018-06-12T04:48:03.409Z,4.8
2018-06-12T04:53:58.262Z,4.51
2018-06-12T04:59:53.245Z,4.57
2018-06-12T05:05:48.367Z,11.4
2018-06-12T05:11:43.242Z,5.65
2018-06-12T05:17:38.284Z,10.46
2018-06-12T05:23:33.265Z,4.14
2018-06-12T05:29:28.309Z,5.72
2018-06-12T05:35:23.312Z,10.43
2018-06-12T05:41:18.352Z,10.14
2018-06-12T05:47:13.312Z,8.48
2018-06-12T05:53:08.349Z,16.73
2018-06-12T05:59:03.421Z,13.38
2018-06-12T06:04:58.292Z,19.29
2018-06-12T06:10:53.257Z,18.92
2018-06-12T06:16:48.272Z,12.32
2018-06-12T06:22:43.316Z,10.61
2018-06-12T06:28:38.330Z,12.57
2018-06-12T06:34:33.344Z,11.05
2018-06-12T06:40:28.284Z,10.13
2018-06-12T06:46:23.303Z,13.34
2018-06-12T06:52:18.305Z,10.32
2018-06-12T06:58:13.317Z,9.49
2018-06-12T07:04:08.324Z,10.72
2018-06-12T07:10:03.277Z,15.71
2018-06-12T07:15:58.287Z,9.26
2018-06-12T07:21:53.296Z,9.52
2018-06-12T07:27:48.304Z,8.25
2018-06-12T07:33:43.292Z,7.96
2018-06-12T07:39:38.351Z,7.4
2018-06-12T07:45:33.380Z,11.55
2018-06-12T07:51:28.324Z,12.09
2018-06-12T07:57:23.349Z,12.53
2018-06-12T08:03:18.323Z,7.64
2018-06-12T08:15:08.368Z,6.34
2018-06-12T08:21:03.434Z,7.7
2018-06-12T08:26:58.417Z,4.04
2018-06-12T08:32:53.322Z,6.02
2018-06-12T08:38:48.321Z,6.51
2018-06-12T08:44:43.354Z,6.66
2018-06-12T08:50:38.343Z,5.88
2018-06-12T08:56:33.394Z,4.37
2018-06-12T09:02:28.342Z,6.05
2018-06-12T09:08:23.326Z,3.28
2018-06-12T09:14:18.412Z,5.43
2018-06-12T09:20:13.407Z,2.23
2018-06-12T09:26:08.382Z,1.47
2018-06-12T09:32:03.344Z,5.63
2018-06-12T09:37:58.419Z,4.06
2018-06-12T09:43:53.356Z,4.46
2018-06-12T09:49:48.377Z,5.34
2018-06-12T09:55:43.393Z,3.01
2018-06-12T10:01:41.268Z,2.37
2018-06-12T10:07:33.429Z,2.07
2018-06-12T10:13:28.429Z,3.46
2018-06-12T10:19:23.399Z,3.14
2018-06-12T10:25:18.433Z,3.6
2018-06-12T10:31:13.366Z,6.13
2018-06-12T10:37:08.421Z,5.58
2018-06-12T10:43:03.361Z,5.14
2018-06-12T10:48:58.371Z,4.37
2018-06-12T10:54:53.440Z,5.4
2018-06-12T11:00:48.475Z,4.42
2018-06-12T11:06:43.446Z,4.84
2018-06-12T11:12:39.412Z,2.82
2018-06-12T11:18:33.465Z,2.88
2018-06-12T11:24:29.397Z,2.67
2018-06-12T11:30:23.412Z,3.94
2018-06-12T11:36:18.422Z,3.12
2018-06-12T11:42:13.385Z,2.68
2018-06-12T11:48:08.437Z,7.21
2018-06-12T11:54:03.409Z,5.62
2018-06-12T11:59:58.425Z,3.55
2018-06-12T12:05:53.517Z,6.67
2018-06-12T12:11:48.410Z,5.78
2018-06-12T12:17:43.444Z,7.74
2018-06-12T12:23:38.433Z,8.01
2018-06-12T12:29:33.418Z,10.27
2018-06-12T12:35:28.428Z,9.02
2018-06-12T12:41:23.443Z,9.42
2018-06-12T12:47:18.439Z,7.73
2018-06-12T12:53:13.466Z,7.14
2018-06-12T12:59:08.521Z,10.34
2018-06-12T13:05:03.567Z,7.31
2018-06-12T13:10:58.462Z,10.97
2018-06-12T13:16:53.480Z,10.31
2018-06-12T13:22:48.485Z,6.34
2018-06-12T13:28:43.521Z,10.05
2018-06-12T13:34:38.464Z,11.9
2018-06-12T13:40:33.475Z,10.09
2018-06-12T13:46:28.516Z,5.16
2018-06-12T13:52:23.439Z,8.69
2018-06-12T13:58:18.459Z,11.65
2018-06-12T14:04:28.614Z,6.89
2018-06-12T14:10:15.877Z,7.76
2018-06-12T14:16:10.561Z,7.61
2018-06-12T14:22:13.519Z,6.64
2018-06-12T14:27:53.475Z,9.02
2018-06-12T14:33:49.522Z,9.49
2018-06-12T14:39:50.523Z,7.5
2018-06-12T14:51:44.643Z,6.97
2018-06-12T14:57:29.556Z,6.86
2018-06-12T15:03:24.563Z,8.22
2018-06-12T15:09:23.506Z,5.18
2018-06-12T15:15:18.576Z,6.13
2018-06-12T15:21:11.526Z,5.58
2018-06-12T15:27:22.614Z,8.8
2018-06-12T15:33:33.664Z,5.17
2018-06-12T15:38:58.582Z,8.91
2018-06-12T15:44:48.571Z,9.33
2018-06-12T15:50:56.535Z,6.67
2018-06-12T15:56:45.520Z,4.99
2018-06-12T16:02:38.549Z,13
2018-06-12T16:08:28.574Z,9.57
2018-06-12T16:14:26.511Z,9.86
2018-06-12T16:20:34.593Z,6.88
2018-06-12T16:26:13.560Z,8.63
2018-06-12T16:32:13.558Z,10.07
2018-06-12T16:38:08.546Z,13.59
2018-06-12T16:44:03.608Z,9.85
2018-06-12T16:49:53.527Z,12.43
2018-06-12T16:55:48.549Z,7.73
2018-06-12T17:01:43.560Z,7.81
2018-06-12T17:07:43.610Z,11.95
2018-06-12T17:13:33.515Z,8.61
2018-06-12T17:19:28.522Z,9.5
2018-06-12T17:25:23.526Z,7.08
2018-06-12T17:31:18.584Z,10.61
2018-06-12T17:37:13.551Z,10.9
2018-06-12T17:43:08.550Z,10.19
2018-06-12T17:49:03.560Z,14.19
2018-06-12T17:54:58.660Z,16.91
2018-06-12T18:00:53.634Z,10.25
2018-06-12T18:06:48.624Z,14.39
2018-06-12T18:12:51.558Z,17.7
2018-06-12T18:18:38.564Z,9.63
2018-06-12T18:24:33.573Z,7.2
2018-06-12T18:30:28.623Z,10.12
2018-06-12T18:36:23.596Z,9.24
2018-06-12T18:42:18.561Z,8.58
2018-06-12T18:48:13.597Z,9.6
2018-06-12T18:54:08.581Z,12.24
2018-06-12T19:00:03.607Z,16
2018-06-12T19:05:58.607Z,9.51
2018-06-12T19:11:53.566Z,11.81
2018-06-12T19:17:48.729Z,11.31
2018-06-12T19:23:43.575Z,17.05
2018-06-12T19:29:38.620Z,10.53
2018-06-12T19:41:28.606Z,10.94
2018-06-12T19:47:23.641Z,6.67
2018-06-12T19:53:18.621Z,7.04
2018-06-12T19:59:13.641Z,10.2
2018-06-12T20:05:08.698Z,8.36
2018-06-12T20:11:03.613Z,5.82
2018-06-12T20:16:58.646Z,4.97
2018-06-12T20:22:53.624Z,9.39
2018-06-12T20:28:48.686Z,4.91
2018-06-12T20:34:43.622Z,5.36
2018-06-12T20:40:38.605Z,10.53
2018-06-12T20:46:33.700Z,9.07
2018-06-12T20:52:28.602Z,7.75
2018-06-12T20:58:23.655Z,6.78
2018-06-12T21:04:18.633Z,5.06
2018-06-12T21:10:13.635Z,5.67
2018-06-12T21:16:08.639Z,10.48
2018-06-12T21:22:03.661Z,4.12
2018-06-12T21:27:58.641Z,7.49
2018-06-12T21:33:53.656Z,6.16
2018-06-12T21:39:48.632Z,5.69
2018-06-12T21:45:43.651Z,7.16
2018-06-12T21:51:38.653Z,8.43
2018-06-12T21:57:33.685Z,7.68
2018-06-12T22:03:28.651Z,8.89
2018-06-12T22:09:23.672Z,4.03
2018-06-12T22:15:20.186Z,8.27
2018-06-12T22:21:13.638Z,5.68
2018-06-12T22:27:08.654Z,7.57
2018-06-12T22:33:03.664Z,7.62
2018-06-12T22:38:58.673Z,4.82
2018-06-12T22:44:53.692Z,3.72
2018-06-12T22:50:48.672Z,7.01
2018-06-12T22:56:43.642Z,5.7
2018-06-12T23:02:38.730Z,6.83
2018-06-12T23:08:33.687Z,4.21
2018-06-12T23:14:28.639Z,10.35
2018-06-12T23:20:23.652Z,6.96
2018-06-12T23:26:18.700Z,5.75
2018-06-12T23:32:13.680Z,4.5
2018-06-12T23:38:08.642Z,6.62
2018-06-12T23:44:03.685Z,5.22
2018-06-12T23:49:58.830Z,3.68
2018-06-12T23:55:53.775Z,8.18
